sensor_id;sensor_type;location;lat;lon;timestamp;P1;durP1;ratioP1;P2;durP2;ratioP2
59434;SDS011;45241;49.768;8.636;2023-06-14T00:01:24;5.38;;;3.70;;
59434;SDS011;45241;49.768;8.636;2023-06-14T00:03:51;5.15;;;4.00;;
59434;SDS011;45241;49.768;8.636;2023-06-14T00:06:17;5.60;;;3.90;;
59434;SDS011;45241;49.768;8.636;2023-06-14T00:08:42;5.88;;;3.70;;
59434;SDS011;45241;49.768;8.636;2023-06-14T00:11:08;4.82;;;3.95;;
59434;SDS011;45241;49.768;8.636;2023-06-14T00:13:33;6.32;;;3.90;;
59434;SDS011;45241;49.768;8.636;2023-06-14T00:15:59;4.75;;;4.25;;
59434;SDS011;45241;49.768;8.636;2023-06-14T00:18:25;4.00;;;3.60;;
59434;SDS011;45241;49.768;8.636;2023-06-14T00:20:54;4.97;;;3.97;;
59434;SDS011;45241;49.768;8.636;2023-06-14T00:23:20;4.00;;;3.60;;
59434;SDS011;45241;49.768;8.636;2023-06-14T00:25:45;5.65;;;3.83;;
59434;SDS011;45241;49.768;8.636;2023-06-14T00:28:10;4.68;;;3.67;;
59434;SDS011;45241;49.768;8.636;2023-06-14T00:30:36;5.50;;;3.70;;
59434;SDS011;45241;49.768;8.636;2023-06-14T00:33:01;7.25;;;4.00;;
59434;SDS011;45241;49.768;8.636;2023-06-14T00:35:26;6.35;;;3.80;;
59434;SDS011;45241;49.768;8.636;2023-06-14T00:37:52;5.30;;;3.88;;
59434;SDS011;45241;49.768;8.636;2023-06-14T00:40:19;5.75;;;4.10;;
59434;SDS011;45241;49.768;8.636;2023-06-14T00:42:45;5.50;;;3.97;;
59434;SDS011;45241;49.768;8.636;2023-06-14T00:45:10;4.97;;;4.00;;
59434;SDS011;45241;49.768;8.636;2023-06-14T00:47:35;4.28;;;3.80;;
59434;SDS011;45241;49.768;8.636;2023-06-14T00:50:03;7.72;;;3.85;;
59434;SDS011;45241;49.768;8.636;2023-06-14T00:52:32;4.10;;;3.40;;
59434;SDS011;45241;49.768;8.636;2023-06-14T00:54:57;5.57;;;4.03;;
59434;SDS011;45241;49.768;8.636;2023-06-14T00:57:23;6.15;;;3.92;;
59434;SDS011;45241;49.768;8.636;2023-06-14T00:59:49;5.47;;;4.15;;
59434;SDS011;45241;49.768;8.636;2023-06-14T01:02:14;5.45;;;4.18;;
59434;SDS011;45241;49.768;8.636;2023-06-14T01:04:40;5.35;;;3.65;;
59434;SDS011;45241;49.768;8.636;2023-06-14T01:12:56;5.93;;;4.20;;
59434;SDS011;45241;49.768;8.636;2023-06-14T01:15:27;4.43;;;3.78;;
59434;SDS011;45241;49.768;8.636;2023-06-14T01:17:55;9.18;;;4.10;;
59434;SDS011;45241;49.768;8.636;2023-06-14T01:20:28;8.13;;;3.88;;
59434;SDS011;45241;49.768;8.636;2023-06-14T01:22:54;4.30;;;3.60;;
59434;SDS011;45241;49.768;8.636;2023-06-14T01:25:20;7.05;;;3.78;;
59434;SDS011;45241;49.768;8.636;2023-06-14T01:27:58;4.75;;;3.88;;
59434;SDS011;45241;49.768;8.636;2023-06-14T01:30:26;4.57;;;4.05;;
59434;SDS011;45241;49.768;8.636;2023-06-14T01:32:52;9.35;;;4.07;;
59434;SDS011;45241;49.768;8.636;2023-06-14T01:35:19;6.88;;;3.85;;
59434;SDS011;45241;49.768;8.636;2023-06-14T01:37:46;6.63;;;3.92;;
59434;SDS011;45241;49.768;8.636;2023-06-14T01:40:13;8.05;;;4.13;;
59434;SDS011;45241;49.768;8.636;2023-06-14T01:42:39;5.05;;;3.67;;
59434;SDS011;45241;49.768;8.636;2023-06-14T01:45:06;4.82;;;3.95;;
59434;SDS011;45241;49.768;8.636;2023-06-14T01:47:32;6.55;;;4.13;;
59434;SDS011;45241;49.768;8.636;2023-06-14T01:49:59;4.30;;;3.75;;
59434;SDS011;45241;49.768;8.636;2023-06-14T01:52:24;5.57;;;3.67;;
59434;SDS011;45241;49.768;8.636;2023-06-14T01:54:50;5.88;;;4.30;;
59434;SDS011;45241;49.768;8.636;2023-06-14T01:57:16;5.60;;;4.28;;
59434;SDS011;45241;49.768;8.636;2023-06-14T01:59:41;5.60;;;3.90;;
59434;SDS011;45241;49.768;8.636;2023-06-14T02:02:07;5.07;;;3.80;;
59434;SDS011;45241;49.768;8.636;2023-06-14T02:04:32;6.50;;;4.10;;
59434;SDS011;45241;49.768;8.636;2023-06-14T02:06:58;5.95;;;4.32;;
59434;SDS011;45241;49.768;8.636;2023-06-14T02:09:23;5.28;;;3.90;;
59434;SDS011;45241;49.768;8.636;2023-06-14T02:11:49;5.50;;;3.90;;
59434;SDS011;45241;49.768;8.636;2023-06-14T02:14:14;4.72;;;4.00;;
59434;SDS011;45241;49.768;8.636;2023-06-14T02:16:41;5.60;;;3.60;;
59434;SDS011;45241;49.768;8.636;2023-06-14T02:19:13;6.72;;;4.05;;
59434;SDS011;45241;49.768;8.636;2023-06-14T02:21:43;5.30;;;4.07;;
59434;SDS011;45241;49.768;8.636;2023-06-14T02:24:08;5.10;;;3.60;;
59434;SDS011;45241;49.768;8.636;2023-06-14T02:26:34;6.10;;;3.95;;
59434;SDS011;45241;49.768;8.636;2023-06-14T02:29:00;9.00;;;4.57;;
59434;SDS011;45241;49.768;8.636;2023-06-14T02:31:25;5.82;;;4.13;;
59434;SDS011;45241;49.768;8.636;2023-06-14T02:33:52;5.55;;;4.28;;
59434;SDS011;45241;49.768;8.636;2023-06-14T02:36:17;4.68;;;4.07;;
59434;SDS011;45241;49.768;8.636;2023-06-14T02:38:42;7.35;;;3.97;;
59434;SDS011;45241;49.768;8.636;2023-06-14T02:41:08;8.43;;;4.30;;
59434;SDS011;45241;49.768;8.636;2023-06-14T02:43:33;6.35;;;3.88;;
59434;SDS011;45241;49.768;8.636;2023-06-14T02:45:58;5.10;;;3.95;;
59434;SDS011;45241;49.768;8.636;2023-06-14T02:48:24;7.22;;;4.05;;
59434;SDS011;45241;49.768;8.636;2023-06-14T02:50:49;6.32;;;3.83;;
59434;SDS011;45241;49.768;8.636;2023-06-14T02:53:15;5.40;;;3.80;;
59434;SDS011;45241;49.768;8.636;2023-06-14T02:55:40;5.97;;;4.35;;
59434;SDS011;45241;49.768;8.636;2023-06-14T02:58:06;5.60;;;3.97;;
59434;SDS011;45241;49.768;8.636;2023-06-14T03:00:31;5.65;;;4.15;;
59434;SDS011;45241;49.768;8.636;2023-06-14T03:02:57;6.32;;;4.38;;
59434;SDS011;45241;49.768;8.636;2023-06-14T03:05:22;5.90;;;4.38;;
59434;SDS011;45241;49.768;8.636;2023-06-14T03:07:48;7.00;;;4.32;;
59434;SDS011;45241;49.768;8.636;2023-06-14T03:10:15;7.50;;;4.05;;
59434;SDS011;45241;49.768;8.636;2023-06-14T03:12:41;4.78;;;3.90;;
59434;SDS011;45241;49.768;8.636;2023-06-14T03:15:06;6.57;;;4.40;;
59434;SDS011;45241;49.768;8.636;2023-06-14T03:17:32;5.65;;;4.10;;
59434;SDS011;45241;49.768;8.636;2023-06-14T03:20:01;5.63;;;3.80;;
59434;SDS011;45241;49.768;8.636;2023-06-14T03:22:27;5.80;;;4.10;;
59434;SDS011;45241;49.768;8.636;2023-06-14T03:24:53;6.20;;;4.32;;
59434;SDS011;45241;49.768;8.636;2023-06-14T03:27:19;5.97;;;3.88;;
59434;SDS011;45241;49.768;8.636;2023-06-14T03:29:44;6.13;;;4.03;;
59434;SDS011;45241;49.768;8.636;2023-06-14T03:32:09;8.05;;;4.60;;
59434;SDS011;45241;49.768;8.636;2023-06-14T03:34:35;8.32;;;4.07;;
59434;SDS011;45241;49.768;8.636;2023-06-14T03:37:00;5.30;;;4.15;;
59434;SDS011;45241;49.768;8.636;2023-06-14T03:39:26;8.80;;;4.40;;
59434;SDS011;45241;49.768;8.636;2023-06-14T03:41:51;6.22;;;4.40;;
59434;SDS011;45241;49.768;8.636;2023-06-14T03:44:17;5.82;;;4.32;;
59434;SDS011;45241;49.768;8.636;2023-06-14T03:46:43;7.00;;;4.50;;
59434;SDS011;45241;49.768;8.636;2023-06-14T03:49:10;4.75;;;4.25;;
59434;SDS011;45241;49.768;8.636;2023-06-14T03:51:36;5.95;;;4.32;;
59434;SDS011;45241;49.768;8.636;2023-06-14T03:54:01;6.18;;;4.47;;
59434;SDS011;45241;49.768;8.636;2023-06-14T03:56:27;9.95;;;4.38;;
59434;SDS011;45241;49.768;8.636;2023-06-14T03:58:52;6.38;;;4.55;;
59434;SDS011;45241;49.768;8.636;2023-06-14T04:01:18;8.40;;;4.68;;
59434;SDS011;45241;49.768;8.636;2023-06-14T04:03:43;5.13;;;4.40;;
59434;SDS011;45241;49.768;8.636;2023-06-14T04:06:08;5.50;;;4.78;;
59434;SDS011;45241;49.768;8.636;2023-06-14T04:08:34;6.90;;;4.72;;
59434;SDS011;45241;49.768;8.636;2023-06-14T04:11:00;5.80;;;4.70;;
59434;SDS011;45241;49.768;8.636;2023-06-14T04:13:25;5.22;;;4.43;;
59434;SDS011;45241;49.768;8.636;2023-06-14T04:15:51;5.97;;;4.68;;
59434;SDS011;45241;49.768;8.636;2023-06-14T04:18:16;7.00;;;4.40;;
59434;SDS011;45241;49.768;8.636;2023-06-14T04:20:42;6.45;;;4.20;;
59434;SDS011;45241;49.768;8.636;2023-06-14T04:23:14;6.45;;;4.50;;
59434;SDS011;45241;49.768;8.636;2023-06-14T04:25:40;9.98;;;4.95;;
59434;SDS011;45241;49.768;8.636;2023-06-14T04:28:05;5.03;;;4.28;;
59434;SDS011;45241;49.768;8.636;2023-06-14T04:30:34;6.53;;;4.68;;
59434;SDS011;45241;49.768;8.636;2023-06-14T04:33:01;7.55;;;4.18;;
59434;SDS011;45241;49.768;8.636;2023-06-14T04:37:57;6.93;;;4.72;;
59434;SDS011;45241;49.768;8.636;2023-06-14T04:40:24;6.55;;;4.32;;
59434;SDS011;45241;49.768;8.636;2023-06-14T04:42:49;8.85;;;4.53;;
59434;SDS011;45241;49.768;8.636;2023-06-14T04:45:15;8.40;;;4.82;;
59434;SDS011;45241;49.768;8.636;2023-06-14T04:47:41;4.90;;;3.97;;
59434;SDS011;45241;49.768;8.636;2023-06-14T04:50:09;5.63;;;4.40;;
59434;SDS011;45241;49.768;8.636;2023-06-14T04:52:35;9.05;;;4.38;;
59434;SDS011;45241;49.768;8.636;2023-06-14T04:55:02;4.93;;;3.90;;
59434;SDS011;45241;49.768;8.636;2023-06-14T04:57:27;5.28;;;4.28;;
59434;SDS011;45241;49.768;8.636;2023-06-14T04:59:53;5.90;;;4.22;;
59434;SDS011;45241;49.768;8.636;2023-06-14T05:02:20;10.05;;;4.15;;
59434;SDS011;45241;49.768;8.636;2023-06-14T05:04:47;5.68;;;4.00;;
59434;SDS011;45241;49.768;8.636;2023-06-14T05:07:12;9.35;;;4.38;;
59434;SDS011;45241;49.768;8.636;2023-06-14T05:09:39;8.88;;;3.95;;
59434;SDS011;45241;49.768;8.636;2023-06-14T05:12:04;5.13;;;4.07;;
59434;SDS011;45241;49.768;8.636;2023-06-14T05:14:32;6.78;;;4.55;;
59434;SDS011;45241;49.768;8.636;2023-06-14T05:16:58;6.80;;;4.00;;
59434;SDS011;45241;49.768;8.636;2023-06-14T05:19:23;4.78;;;3.92;;
59434;SDS011;45241;49.768;8.636;2023-06-14T05:21:48;5.65;;;4.20;;
59434;SDS011;45241;49.768;8.636;2023-06-14T05:24:14;7.95;;;4.22;;
59434;SDS011;45241;49.768;8.636;2023-06-14T05:26:39;4.85;;;3.60;;
59434;SDS011;45241;49.768;8.636;2023-06-14T05:29:05;7.45;;;4.00;;
59434;SDS011;45241;49.768;8.636;2023-06-14T05:31:31;5.55;;;4.07;;
59434;SDS011;45241;49.768;8.636;2023-06-14T05:33:56;6.68;;;3.95;;
59434;SDS011;45241;49.768;8.636;2023-06-14T05:36:22;6.75;;;4.00;;
59434;SDS011;45241;49.768;8.636;2023-06-14T05:38:47;4.40;;;4.00;;
59434;SDS011;45241;49.768;8.636;2023-06-14T05:41:13;5.07;;;4.10;;
59434;SDS011;45241;49.768;8.636;2023-06-14T05:43:38;8.10;;;4.38;;
59434;SDS011;45241;49.768;8.636;2023-06-14T05:46:03;7.68;;;4.22;;
59434;SDS011;45241;49.768;8.636;2023-06-14T05:48:30;8.98;;;4.22;;
59434;SDS011;45241;49.768;8.636;2023-06-14T05:50:55;7.22;;;4.30;;
59434;SDS011;45241;49.768;8.636;2023-06-14T05:53:21;5.88;;;4.00;;
59434;SDS011;45241;49.768;8.636;2023-06-14T05:55:46;6.70;;;4.28;;
59434;SDS011;45241;49.768;8.636;2023-06-14T05:58:11;5.53;;;4.32;;
59434;SDS011;45241;49.768;8.636;2023-06-14T06:00:38;6.10;;;4.15;;
59434;SDS011;45241;49.768;8.636;2023-06-14T06:03:04;5.38;;;3.80;;
59434;SDS011;45241;49.768;8.636;2023-06-14T06:05:29;7.45;;;4.35;;
59434;SDS011;45241;49.768;8.636;2023-06-14T06:07:55;4.28;;;3.88;;
59434;SDS011;45241;49.768;8.636;2023-06-14T06:10:20;5.30;;;3.55;;
59434;SDS011;45241;49.768;8.636;2023-06-14T06:12:46;8.50;;;4.22;;
59434;SDS011;45241;49.768;8.636;2023-06-14T06:15:12;5.60;;;3.65;;
59434;SDS011;45241;49.768;8.636;2023-06-14T06:17:38;7.55;;;4.13;;
59434;SDS011;45241;49.768;8.636;2023-06-14T06:20:04;7.32;;;3.90;;
59434;SDS011;45241;49.768;8.636;2023-06-14T06:22:33;7.32;;;3.72;;
59434;SDS011;45241;49.768;8.636;2023-06-14T06:24:58;7.43;;;4.03;;
59434;SDS011;45241;49.768;8.636;2023-06-14T06:27:24;5.30;;;3.70;;
59434;SDS011;45241;49.768;8.636;2023-06-14T06:29:49;7.05;;;3.83;;
59434;SDS011;45241;49.768;8.636;2023-06-14T06:32:15;6.75;;;4.03;;
59434;SDS011;45241;49.768;8.636;2023-06-14T06:34:40;4.95;;;3.90;;
59434;SDS011;45241;49.768;8.636;2023-06-14T06:37:06;7.13;;;3.95;;
59434;SDS011;45241;49.768;8.636;2023-06-14T06:39:32;5.70;;;3.42;;
59434;SDS011;45241;49.768;8.636;2023-06-14T06:41:57;6.03;;;3.90;;
59434;SDS011;45241;49.768;8.636;2023-06-14T06:44:23;4.75;;;3.70;;
59434;SDS011;45241;49.768;8.636;2023-06-14T06:46:48;5.85;;;4.00;;
59434;SDS011;45241;49.768;8.636;2023-06-14T06:49:13;5.18;;;4.15;;
59434;SDS011;45241;49.768;8.636;2023-06-14T06:51:41;4.32;;;3.58;;
59434;SDS011;45241;49.768;8.636;2023-06-14T06:54:07;6.53;;;3.83;;
59434;SDS011;45241;49.768;8.636;2023-06-14T06:56:33;7.97;;;4.38;;
59434;SDS011;45241;49.768;8.636;2023-06-14T06:58:59;4.75;;;3.65;;
59434;SDS011;45241;49.768;8.636;2023-06-14T07:01:24;9.48;;;3.90;;
59434;SDS011;45241;49.768;8.636;2023-06-14T07:03:51;4.00;;;3.58;;
59434;SDS011;45241;49.768;8.636;2023-06-14T07:06:16;6.68;;;3.83;;
59434;SDS011;45241;49.768;8.636;2023-06-14T07:08:43;5.90;;;3.70;;
59434;SDS011;45241;49.768;8.636;2023-06-14T07:11:09;6.50;;;3.83;;
59434;SDS011;45241;49.768;8.636;2023-06-14T07:13:34;7.65;;;3.88;;
59434;SDS011;45241;49.768;8.636;2023-06-14T07:16:00;4.47;;;3.65;;
59434;SDS011;45241;49.768;8.636;2023-06-14T07:18:26;5.35;;;3.63;;
59434;SDS011;45241;49.768;8.636;2023-06-14T07:20:52;6.53;;;4.05;;
59434;SDS011;45241;49.768;8.636;2023-06-14T07:23:18;5.93;;;3.78;;
59434;SDS011;45241;49.768;8.636;2023-06-14T07:25:44;6.13;;;3.92;;
59434;SDS011;45241;49.768;8.636;2023-06-14T07:28:09;6.63;;;4.00;;
59434;SDS011;45241;49.768;8.636;2023-06-14T07:30:35;7.47;;;4.18;;
59434;SDS011;45241;49.768;8.636;2023-06-14T07:33:00;7.22;;;3.97;;
59434;SDS011;45241;49.768;8.636;2023-06-14T07:35:25;6.50;;;4.10;;
59434;SDS011;45241;49.768;8.636;2023-06-14T07:37:51;6.13;;;3.80;;
59434;SDS011;45241;49.768;8.636;2023-06-14T07:40:16;10.70;;;3.90;;
59434;SDS011;45241;49.768;8.636;2023-06-14T07:42:42;6.10;;;3.70;;
59434;SDS011;45241;49.768;8.636;2023-06-14T07:45:07;7.03;;;3.55;;
59434;SDS011;45241;49.768;8.636;2023-06-14T07:47:33;5.25;;;3.72;;
59434;SDS011;45241;49.768;8.636;2023-06-14T07:49:59;5.25;;;3.60;;
59434;SDS011;45241;49.768;8.636;2023-06-14T07:52:24;5.97;;;3.75;;
59434;SDS011;45241;49.768;8.636;2023-06-14T07:54:50;6.90;;;3.47;;
59434;SDS011;45241;49.768;8.636;2023-06-14T07:57:15;7.18;;;3.35;;
59434;SDS011;45241;49.768;8.636;2023-06-14T07:59:40;4.78;;;3.40;;
59434;SDS011;45241;49.768;8.636;2023-06-14T08:02:06;6.43;;;3.58;;
59434;SDS011;45241;49.768;8.636;2023-06-14T08:04:31;5.70;;;3.60;;
59434;SDS011;45241;49.768;8.636;2023-06-14T08:06:58;3.88;;;3.20;;
59434;SDS011;45241;49.768;8.636;2023-06-14T08:09:24;4.07;;;3.58;;
59434;SDS011;45241;49.768;8.636;2023-06-14T08:11:50;5.22;;;3.30;;
59434;SDS011;45241;49.768;8.636;2023-06-14T08:14:15;5.70;;;3.00;;
59434;SDS011;45241;49.768;8.636;2023-06-14T08:16:41;4.45;;;2.90;;
59434;SDS011;45241;49.768;8.636;2023-06-14T08:19:06;4.07;;;2.78;;
59434;SDS011;45241;49.768;8.636;2023-06-14T08:21:31;3.45;;;2.72;;
59434;SDS011;45241;49.768;8.636;2023-06-14T08:23:58;4.00;;;2.70;;
59434;SDS011;45241;49.768;8.636;2023-06-14T08:26:24;4.45;;;2.85;;
59434;SDS011;45241;49.768;8.636;2023-06-14T08:31:19;3.78;;;3.00;;
59434;SDS011;45241;49.768;8.636;2023-06-14T08:33:45;9.10;;;3.00;;
59434;SDS011;45241;49.768;8.636;2023-06-14T08:36:10;7.45;;;3.03;;
59434;SDS011;45241;49.768;8.636;2023-06-14T08:38:37;5.30;;;2.65;;
59434;SDS011;45241;49.768;8.636;2023-06-14T08:41:02;4.70;;;2.50;;
59434;SDS011;45241;49.768;8.636;2023-06-14T08:43:30;4.55;;;2.83;;
59434;SDS011;45241;49.768;8.636;2023-06-14T08:45:57;4.22;;;2.45;;
59434;SDS011;45241;49.768;8.636;2023-06-14T08:48:26;5.50;;;2.80;;
59434;SDS011;45241;49.768;8.636;2023-06-14T08:50:51;4.88;;;2.75;;
59434;SDS011;45241;49.768;8.636;2023-06-14T08:53:28;3.92;;;2.47;;
59434;SDS011;45241;49.768;8.636;2023-06-14T08:55:56;3.75;;;2.75;;
59434;SDS011;45241;49.768;8.636;2023-06-14T08:58:26;6.22;;;2.75;;
59434;SDS011;45241;49.768;8.636;2023-06-14T09:00:54;5.28;;;2.63;;
59434;SDS011;45241;49.768;8.636;2023-06-14T09:03:20;3.08;;;2.50;;
59434;SDS011;45241;49.768;8.636;2023-06-14T09:05:47;4.30;;;2.40;;
59434;SDS011;45241;49.768;8.636;2023-06-14T09:08:12;3.28;;;2.33;;
59434;SDS011;45241;49.768;8.636;2023-06-14T09:10:38;3.30;;;2.60;;
59434;SDS011;45241;49.768;8.636;2023-06-14T09:13:05;3.42;;;2.50;;
59434;SDS011;45241;49.768;8.636;2023-06-14T09:15:31;2.90;;;2.50;;
59434;SDS011;45241;49.768;8.636;2023-06-14T09:17:57;2.95;;;2.50;;
59434;SDS011;45241;49.768;8.636;2023-06-14T09:20:23;3.35;;;2.10;;
59434;SDS011;45241;49.768;8.636;2023-06-14T09:22:49;5.47;;;2.22;;
59434;SDS011;45241;49.768;8.636;2023-06-14T09:25:15;3.88;;;1.77;;
59434;SDS011;45241;49.768;8.636;2023-06-14T09:27:41;4.00;;;1.90;;
59434;SDS011;45241;49.768;8.636;2023-06-14T09:30:08;2.63;;;2.08;;
59434;SDS011;45241;49.768;8.636;2023-06-14T09:32:38;2.97;;;1.80;;
59434;SDS011;45241;49.768;8.636;2023-06-14T09:35:05;6.82;;;2.13;;
59434;SDS011;45241;49.768;8.636;2023-06-14T09:37:32;3.35;;;2.00;;
59434;SDS011;45241;49.768;8.636;2023-06-14T09:39:58;2.13;;;1.48;;
59434;SDS011;45241;49.768;8.636;2023-06-14T09:42:24;2.08;;;1.58;;
59434;SDS011;45241;49.768;8.636;2023-06-14T09:44:51;3.25;;;1.20;;
59434;SDS011;45241;49.768;8.636;2023-06-14T09:47:18;3.47;;;1.63;;
59434;SDS011;45241;49.768;8.636;2023-06-14T09:49:43;4.30;;;1.70;;
59434;SDS011;45241;49.768;8.636;2023-06-14T09:52:14;2.70;;;1.90;;
59434;SDS011;45241;49.768;8.636;2023-06-14T09:54:42;3.85;;;1.52;;
59434;SDS011;45241;49.768;8.636;2023-06-14T09:57:11;2.08;;;1.73;;
59434;SDS011;45241;49.768;8.636;2023-06-14T09:59:36;4.45;;;1.55;;
59434;SDS011;45241;49.768;8.636;2023-06-14T10:02:07;4.28;;;1.70;;
59434;SDS011;45241;49.768;8.636;2023-06-14T10:05:06;4.85;;;1.83;;
59434;SDS011;45241;49.768;8.636;2023-06-14T10:07:38;2.28;;;1.73;;
59434;SDS011;45241;49.768;8.636;2023-06-14T10:10:07;2.88;;;1.90;;
59434;SDS011;45241;49.768;8.636;2023-06-14T10:12:33;1.85;;;1.70;;
59434;SDS011;45241;49.768;8.636;2023-06-14T10:14:58;2.20;;;1.58;;
59434;SDS011;45241;49.768;8.636;2023-06-14T10:22:44;2.40;;;2.08;;
59434;SDS011;45241;49.768;8.636;2023-06-14T10:25:28;3.05;;;2.05;;
59434;SDS011;45241;49.768;8.636;2023-06-14T10:28:14;4.40;;;2.60;;
59434;SDS011;45241;49.768;8.636;2023-06-14T10:30:41;4.35;;;2.25;;
59434;SDS011;45241;49.768;8.636;2023-06-14T10:33:29;3.63;;;2.40;;
59434;SDS011;45241;49.768;8.636;2023-06-14T10:41:42;3.33;;;2.30;;
59434;SDS011;45241;49.768;8.636;2023-06-14T10:49:19;4.68;;;2.45;;
59434;SDS011;45241;49.768;8.636;2023-06-14T10:51:46;3.35;;;1.92;;
59434;SDS011;45241;49.768;8.636;2023-06-14T10:54:21;3.75;;;2.38;;
59434;SDS011;45241;49.768;8.636;2023-06-14T10:59:20;2.92;;;2.25;;
59434;SDS011;45241;49.768;8.636;2023-06-14T11:05:13;5.90;;;2.35;;
59434;SDS011;45241;49.768;8.636;2023-06-14T11:12:49;3.25;;;2.30;;
59434;SDS011;45241;49.768;8.636;2023-06-14T11:15:17;3.60;;;2.75;;
59434;SDS011;45241;49.768;8.636;2023-06-14T11:17:51;2.80;;;2.10;;
59434;SDS011;45241;49.768;8.636;2023-06-14T11:20:23;4.97;;;2.53;;
59434;SDS011;45241;49.768;8.636;2023-06-14T11:22:51;3.03;;;2.28;;
59434;SDS011;45241;49.768;8.636;2023-06-14T11:25:16;2.17;;;1.98;;
59434;SDS011;45241;49.768;8.636;2023-06-14T11:27:42;2.28;;;2.08;;
59434;SDS011;45241;49.768;8.636;2023-06-14T11:30:08;2.40;;;2.20;;
59434;SDS011;45241;49.768;8.636;2023-06-14T11:32:35;3.78;;;2.47;;
59434;SDS011;45241;49.768;8.636;2023-06-14T11:35:01;4.10;;;2.60;;
59434;SDS011;45241;49.768;8.636;2023-06-14T11:37:27;4.55;;;2.50;;
59434;SDS011;45241;49.768;8.636;2023-06-14T11:39:57;4.10;;;2.60;;
59434;SDS011;45241;49.768;8.636;2023-06-14T11:42:23;3.10;;;2.30;;
59434;SDS011;45241;49.768;8.636;2023-06-14T11:44:49;3.28;;;2.42;;
59434;SDS011;45241;49.768;8.636;2023-06-14T11:47:15;5.10;;;2.55;;
59434;SDS011;45241;49.768;8.636;2023-06-14T11:49:40;2.65;;;2.25;;
59434;SDS011;45241;49.768;8.636;2023-06-14T11:52:07;3.65;;;2.30;;
59434;SDS011;45241;49.768;8.636;2023-06-14T11:54:32;3.55;;;2.15;;
59434;SDS011;45241;49.768;8.636;2023-06-14T11:56:58;4.00;;;2.38;;
59434;SDS011;45241;49.768;8.636;2023-06-14T11:59:24;6.10;;;2.67;;
59434;SDS011;45241;49.768;8.636;2023-06-14T12:01:50;3.33;;;2.47;;
59434;SDS011;45241;49.768;8.636;2023-06-14T12:04:28;4.00;;;2.72;;
59434;SDS011;45241;49.768;8.636;2023-06-14T12:06:53;4.55;;;2.40;;
59434;SDS011;45241;49.768;8.636;2023-06-14T12:09:20;2.67;;;2.25;;
59434;SDS011;45241;49.768;8.636;2023-06-14T12:11:48;5.43;;;2.67;;
59434;SDS011;45241;49.768;8.636;2023-06-14T12:14:14;4.18;;;2.30;;
59434;SDS011;45241;49.768;8.636;2023-06-14T12:16:40;2.42;;;2.20;;
59434;SDS011;45241;49.768;8.636;2023-06-14T12:19:15;3.58;;;2.42;;
59434;SDS011;45241;49.768;8.636;2023-06-14T12:21:42;3.05;;;2.40;;
59434;SDS011;45241;49.768;8.636;2023-06-14T12:24:12;3.60;;;2.53;;
59434;SDS011;45241;49.768;8.636;2023-06-14T12:26:37;4.70;;;2.53;;
59434;SDS011;45241;49.768;8.636;2023-06-14T12:29:05;3.60;;;2.40;;
59434;SDS011;45241;49.768;8.636;2023-06-14T12:31:31;2.67;;;2.33;;
59434;SDS011;45241;49.768;8.636;2023-06-14T12:33:57;4.97;;;2.65;;
59434;SDS011;45241;49.768;8.636;2023-06-14T12:36:22;5.45;;;2.15;;
59434;SDS011;45241;49.768;8.636;2023-06-14T12:38:48;2.47;;;2.25;;
59434;SDS011;45241;49.768;8.636;2023-06-14T12:41:14;3.33;;;2.33;;
59434;SDS011;45241;49.768;8.636;2023-06-14T12:43:39;3.55;;;2.10;;
59434;SDS011;45241;49.768;8.636;2023-06-14T12:46:05;2.60;;;2.40;;
59434;SDS011;45241;49.768;8.636;2023-06-14T12:48:31;2.50;;;2.30;;
59434;SDS011;45241;49.768;8.636;2023-06-14T12:50:56;2.90;;;2.35;;
59434;SDS011;45241;49.768;8.636;2023-06-14T12:53:22;3.17;;;2.17;;
59434;SDS011;45241;49.768;8.636;2023-06-14T12:55:48;3.45;;;2.30;;
59434;SDS011;45241;49.768;8.636;2023-06-14T12:58:13;2.08;;;1.88;;
59434;SDS011;45241;49.768;8.636;2023-06-14T13:00:39;4.78;;;2.10;;
59434;SDS011;45241;49.768;8.636;2023-06-14T13:03:05;3.17;;;1.85;;
59434;SDS011;45241;49.768;8.636;2023-06-14T13:05:30;2.65;;;2.08;;
59434;SDS011;45241;49.768;8.636;2023-06-14T13:07:58;2.85;;;2.10;;
59434;SDS011;45241;49.768;8.636;2023-06-14T13:10:23;4.32;;;2.67;;
59434;SDS011;45241;49.768;8.636;2023-06-14T13:12:49;4.70;;;2.28;;
59434;SDS011;45241;49.768;8.636;2023-06-14T13:15:14;3.17;;;2.50;;
59434;SDS011;45241;49.768;8.636;2023-06-14T13:17:40;2.97;;;1.92;;
59434;SDS011;45241;49.768;8.636;2023-06-14T13:20:07;5.50;;;2.30;;
59434;SDS011;45241;49.768;8.636;2023-06-14T13:22:33;3.30;;;2.35;;
59434;SDS011;45241;49.768;8.636;2023-06-14T13:24:59;4.18;;;2.40;;
59434;SDS011;45241;49.768;8.636;2023-06-14T13:27:25;3.58;;;2.35;;
59434;SDS011;45241;49.768;8.636;2023-06-14T13:29:51;4.78;;;2.05;;
59434;SDS011;45241;49.768;8.636;2023-06-14T13:32:17;3.22;;;2.50;;
59434;SDS011;45241;49.768;8.636;2023-06-14T13:34:42;2.88;;;2.38;;
59434;SDS011;45241;49.768;8.636;2023-06-14T13:37:07;3.90;;;2.20;;
59434;SDS011;45241;49.768;8.636;2023-06-14T13:39:33;4.00;;;2.10;;
59434;SDS011;45241;49.768;8.636;2023-06-14T13:41:58;3.45;;;1.90;;
59434;SDS011;45241;49.768;8.636;2023-06-14T13:44:23;2.63;;;2.15;;
59434;SDS011;45241;49.768;8.636;2023-06-14T13:46:50;5.22;;;2.60;;
59434;SDS011;45241;49.768;8.636;2023-06-14T13:49:15;5.75;;;2.40;;
59434;SDS011;45241;49.768;8.636;2023-06-14T13:51:40;3.60;;;2.20;;
59434;SDS011;45241;49.768;8.636;2023-06-14T13:54:06;3.88;;;2.22;;
59434;SDS011;45241;49.768;8.636;2023-06-14T13:56:31;4.68;;;2.10;;
59434;SDS011;45241;49.768;8.636;2023-06-14T13:58:57;3.17;;;2.30;;
59434;SDS011;45241;49.768;8.636;2023-06-14T14:01:22;2.63;;;2.22;;
59434;SDS011;45241;49.768;8.636;2023-06-14T14:03:48;4.50;;;2.38;;
59434;SDS011;45241;49.768;8.636;2023-06-14T14:06:15;2.50;;;2.30;;
59434;SDS011;45241;49.768;8.636;2023-06-14T14:08:41;2.53;;;2.17;;
59434;SDS011;45241;49.768;8.636;2023-06-14T14:11:06;2.47;;;2.17;;
59434;SDS011;45241;49.768;8.636;2023-06-14T14:13:32;4.45;;;2.20;;
59434;SDS011;45241;49.768;8.636;2023-06-14T14:15:58;5.07;;;2.15;;
59434;SDS011;45241;49.768;8.636;2023-06-14T14:18:24;6.13;;;2.53;;
59434;SDS011;45241;49.768;8.636;2023-06-14T14:20:50;6.22;;;2.22;;
59434;SDS011;45241;49.768;8.636;2023-06-14T14:23:15;3.95;;;2.20;;
59434;SDS011;45241;49.768;8.636;2023-06-14T14:25:41;3.92;;;2.47;;
59434;SDS011;45241;49.768;8.636;2023-06-14T14:28:06;3.83;;;2.05;;
59434;SDS011;45241;49.768;8.636;2023-06-14T14:30:32;3.17;;;2.10;;
59434;SDS011;45241;49.768;8.636;2023-06-14T14:32:57;4.68;;;2.22;;
59434;SDS011;45241;49.768;8.636;2023-06-14T14:35:23;2.38;;;2.17;;
59434;SDS011;45241;49.768;8.636;2023-06-14T14:37:50;2.30;;;2.10;;
59434;SDS011;45241;49.768;8.636;2023-06-14T14:40:16;2.75;;;2.40;;
59434;SDS011;45241;49.768;8.636;2023-06-14T14:42:41;3.28;;;2.42;;
59434;SDS011;45241;49.768;8.636;2023-06-14T14:45:07;4.18;;;2.00;;
59434;SDS011;45241;49.768;8.636;2023-06-14T14:47:32;3.45;;;2.42;;
59434;SDS011;45241;49.768;8.636;2023-06-14T14:49:58;3.15;;;1.98;;
59434;SDS011;45241;49.768;8.636;2023-06-14T14:52:23;4.22;;;1.83;;
59434;SDS011;45241;49.768;8.636;2023-06-14T14:54:49;4.82;;;2.10;;
59434;SDS011;45241;49.768;8.636;2023-06-14T14:57:15;2.25;;;1.98;;
59434;SDS011;45241;49.768;8.636;2023-06-14T14:59:40;4.03;;;2.00;;
59434;SDS011;45241;49.768;8.636;2023-06-14T15:02:05;3.28;;;2.05;;
59434;SDS011;45241;49.768;8.636;2023-06-14T15:04:31;2.47;;;2.17;;
59434;SDS011;45241;49.768;8.636;2023-06-14T15:06:56;5.60;;;2.20;;
59434;SDS011;45241;49.768;8.636;2023-06-14T15:09:22;2.67;;;2.08;;
59434;SDS011;45241;49.768;8.636;2023-06-14T15:11:47;2.40;;;2.00;;
59434;SDS011;45241;49.768;8.636;2023-06-14T15:14:13;3.58;;;2.40;;
59434;SDS011;45241;49.768;8.636;2023-06-14T15:16:39;2.72;;;2.50;;
59434;SDS011;45241;49.768;8.636;2023-06-14T15:19:05;4.47;;;1.95;;
59434;SDS011;45241;49.768;8.636;2023-06-14T15:21:30;3.80;;;2.40;;